Time;durP1;ratioP1;P1;durP2;ratioP2;P2;SDS_P1;SDS_P2;PMS_P1;PMS_P2;Temp;Humidity;BMP_temperature;BMP_pressure;BME280_temperature;BME280_humidity;BME280_pressure;Samples;Min_cycle;Max_cycle;Signal;HPM_P1;HPM_P2
2021/03/20 00:00:55;;;;;;;3.60;1.70;;;3.00;68.40;;;;;;10045085;28;20029;-63
2021/03/20 00:05:47;;;;;;;5.88;1.92;;;2.90;68.70;;;;;;10048341;28;20029;-63
2021/03/20 00:10:38;;;;;;;4.80;2.25;;;3.00;68.60;;;;;;10045869;28;20033;-65
2021/03/20 00:15:29;;;;;;;5.22;2.10;;;2.90;68.20;;;;;;10051837;28;20041;-64
2021/03/20 00:20:41;;;;;;;2.78;2.03;;;2.90;68.60;;;;;;10053329;28;20245;-63
2021/03/20 00:25:33;;;;;;;2.42;1.60;;;3.00;68.60;;;;;;10065233;28;20527;-63
2021/03/20 00:30:25;;;;;;;4.28;2.03;;;2.90;68.40;;;;;;10052108;28;20064;-64
2021/03/20 00:35:18;;;;;;;3.60;1.90;;;2.80;68.60;;;;;;10051899;28;20057;-65
2021/03/20 00:40:14;;;;;;;3.10;1.83;;;2.90;68.70;;;;;;10053137;28;20025;-63
2021/03/20 00:45:08;;;;;;;3.72;1.95;;;2.80;68.90;;;;;;10053650;28;20427;-62
2021/03/20 00:49:59;;;;;;;4.85;2.15;;;2.80;69.00;;;;;;10082104;28;20120;-63
2021/03/20 00:54:49;;;;;;;3.30;1.88;;;2.70;69.10;;;;;;10053434;28;20126;-65
2021/03/20 00:59:41;;;;;;;3.83;2.15;;;2.70;69.40;;;;;;10052247;28;20108;-63
2021/03/20 01:04:31;;;;;;;4.07;1.98;;;2.60;69.40;;;;;;10051031;28;20029;-65
2021/03/20 01:09:22;;;;;;;2.75;1.67;;;2.50;70.00;;;;;;10058216;28;20018;-64
2021/03/20 01:14:13;;;;;;;2.17;1.77;;;2.40;70.20;;;;;;10048861;28;20045;-64
2021/03/20 01:19:04;;;;;;;4.63;2.05;;;2.40;70.10;;;;;;10052426;28;20029;-63
2021/03/20 01:23:55;;;;;;;5.40;2.08;;;2.40;70.10;;;;;;10050399;28;20075;-65
2021/03/20 01:28:46;;;;;;;5.20;1.90;;;2.40;70.10;;;;;;10050133;28;20031;-63
2021/03/20 01:33:37;;;;;;;2.47;1.73;;;2.30;70.00;;;;;;10042096;28;20563;-62
2021/03/20 01:38:28;;;;;;;2.92;1.90;;;2.20;70.20;;;;;;10050118;28;20112;-64
2021/03/20 01:43:22;;;;;;;3.67;1.92;;;2.30;70.00;;;;;;10049494;28;20028;-64
2021/03/20 01:48:33;;;;;;;4.93;1.88;;;2.30;70.00;;;;;;10049886;28;20034;-64
2021/03/20 01:53:53;;;;;;;3.47;1.77;;;2.20;70.30;;;;;;10049025;28;20103;-61
2021/03/20 01:58:45;;;;;;;4.18;1.70;;;2.20;70.60;;;;;;10046962;28;20041;-60
2021/03/20 02:03:37;;;;;;;4.18;2.72;;;2.30;70.10;;;;;;10048088;28;20033;-61
2021/03/20 02:08:29;;;;;;;4.05;1.85;;;2.20;70.20;;;;;;10049538;28;20018;-62
2021/03/20 02:13:43;;;;;;;7.47;2.40;;;2.20;70.00;;;;;;10045586;28;20088;-64
2021/03/20 02:18:51;;;;;;;4.57;1.85;;;2.20;71.30;;;;;;10049233;28;20479;-63
2021/03/20 02:24:01;;;;;;;3.60;2.13;;;2.10;71.20;;;;;;10046334;28;20315;-63
2021/03/20 02:29:19;;;;;;;4.43;1.75;;;2.10;70.90;;;;;;10041063;28;20451;-64
2021/03/20 02:34:19;;;;;;;3.35;1.60;;;2.10;71.10;;;;;;10040973;28;20493;-60
2021/03/20 02:39:17;;;;;;;3.67;1.60;;;2.00;71.60;;;;;;10042855;28;20100;-61
2021/03/20 02:44:22;;;;;;;4.65;1.70;;;2.00;71.50;;;;;;10041446;28;20123;-63
2021/03/20 02:49:19;;;;;;;4.15;2.05;;;2.10;71.40;;;;;;10043018;28;20044;-62
2021/03/20 02:54:20;;;;;;;2.42;1.90;;;2.20;70.90;;;;;;10040727;28;20040;-62
2021/03/20 02:59:13;;;;;;;2.58;1.48;;;2.30;71.10;;;;;;10039236;28;20113;-61
2021/03/20 03:04:05;;;;;;;4.65;2.00;;;2.20;71.20;;;;;;10043716;28;20033;-61
2021/03/20 03:09:00;;;;;;;2.90;2.00;;;2.30;71.30;;;;;;10048686;28;20049;-64
2021/03/20 03:14:14;;;;;;;3.35;1.75;;;2.30;71.10;;;;;;10045329;28;20033;-65
2021/03/20 03:19:12;;;;;;;4.35;1.92;;;2.30;71.50;;;;;;10038814;28;20402;-61
2021/03/20 03:24:04;;;;;;;2.95;1.70;;;2.30;71.60;;;;;;10045829;28;20036;-60
2021/03/20 03:29:02;;;;;;;2.92;2.22;;;2.20;72.10;;;;;;10044436;28;20464;-63
2021/03/20 03:34:01;;;;;;;5.47;2.72;;;2.30;71.70;;;;;;10037569;28;20063;-62
2021/03/20 03:39:06;;;;;;;2.75;2.03;;;2.20;71.90;;;;;;10046315;28;20048;-62
2021/03/20 03:43:57;;;;;;;4.03;2.13;;;2.20;72.10;;;;;;10047208;28;20059;-63
2021/03/20 03:48:58;;;;;;;4.80;1.90;;;2.30;72.00;;;;;;10055940;28;20394;-61
2021/03/20 03:53:49;;;;;;;2.78;1.95;;;2.40;71.70;;;;;;10055019;28;20021;-61
2021/03/20 03:59:10;;;;;;;4.85;2.42;;;2.40;71.80;;;;;;10055595;28;20438;-61
2021/03/20 04:04:32;;;;;;;5.57;2.55;;;2.30;72.40;;;;;;10049166;28;20086;-63
2021/03/20 04:09:43;;;;;;;5.38;2.78;;;2.20;72.70;;;;;;10056807;28;20033;-63
2021/03/20 04:14:51;;;;;;;6.32;2.85;;;2.20;73.20;;;;;;10049319;28;20061;-65
2021/03/20 04:20:04;;;;;;;5.22;2.35;;;2.20;73.00;;;;;;10054662;28;20051;-63
2021/03/20 04:25:09;;;;;;;4.80;2.65;;;2.10;73.40;;;;;;10050347;28;20041;-61
2021/03/20 04:30:14;;;;;;;3.72;2.78;;;2.10;73.40;;;;;;10052902;28;20025;-62
2021/03/20 04:35:33;;;;;;;4.75;2.78;;;2.20;73.70;;;;;;10049629;28;20041;-62
2021/03/20 04:40:42;;;;;;;3.47;2.50;;;2.30;73.60;;;;;;10045722;28;20491;-63
2021/03/20 04:45:39;;;;;;;5.05;2.30;;;2.30;73.50;;;;;;10051428;28;20029;-63
2021/03/20 04:50:31;;;;;;;10.27;3.28;;;2.30;74.40;;;;;;10054807;28;20449;-65
2021/03/20 04:55:22;;;;;;;7.03;2.85;;;2.30;74.30;;;;;;10050008;28;20090;-63
2021/03/20 05:00:18;;;;;;;4.57;2.63;;;2.30;73.80;;;;;;10051407;28;20080;-63
2021/03/20 05:05:29;;;;;;;7.45;2.95;;;2.30;75.00;;;;;;10050940;28;20033;-63
2021/03/20 05:10:32;;;;;;;7.03;2.88;;;2.20;74.50;;;;;;10051620;28;20040;-61
2021/03/20 05:15:33;;;;;;;5.03;3.08;;;2.10;75.00;;;;;;10041802;28;20193;-63
2021/03/20 05:20:24;;;;;;;5.35;3.08;;;2.10;74.50;;;;;;10050761;28;20487;-63
2021/03/20 05:25:17;;;;;;;5.50;2.92;;;2.20;74.60;;;;;;10050786;28;20610;-61
2021/03/20 05:30:10;;;;;;;5.60;2.90;;;2.20;74.60;;;;;;10052381;28;20349;-63
2021/03/20 05:35:03;;;;;;;7.55;3.20;;;2.00;74.60;;;;;;10049318;28;20042;-62
2021/03/20 05:39:54;;;;;;;5.38;2.78;;;2.10;74.80;;;;;;10043012;28;20442;-65
2021/03/20 05:45:18;;;;;;;5.70;2.80;;;2.00;74.40;;;;;;10050610;28;20372;-64
2021/03/20 05:50:13;;;;;;;5.43;2.50;;;2.00;74.90;;;;;;10051564;28;20035;-64
2021/03/20 05:55:32;;;;;;;3.85;2.85;;;1.90;75.10;;;;;;10048139;28;20041;-60
2021/03/20 06:00:31;;;;;;;5.38;3.47;;;1.80;76.00;;;;;;10046376;28;20045;-62
2021/03/20 06:05:52;;;;;;;5.30;3.00;;;1.80;75.40;;;;;;10043832;28;20032;-62
2021/03/20 06:11:05;;;;;;;3.30;2.20;;;1.80;75.70;;;;;;10045005;28;20155;-63
2021/03/20 06:16:15;;;;;;;4.13;2.50;;;1.80;76.80;;;;;;10040443;28;20633;-61
2021/03/20 06:21:29;;;;;;;5.03;2.78;;;1.80;77.20;;;;;;10048590;28;20056;-64
2021/03/20 06:26:35;;;;;;;5.45;2.80;;;1.80;76.70;;;;;;10034295;28;20407;-62
2021/03/20 06:31:39;;;;;;;3.97;2.97;;;1.80;76.40;;;;;;10042409;28;20021;-63
2021/03/20 06:36:35;;;;;;;4.53;2.42;;;1.90;75.90;;;;;;10048660;28;20239;-62
2021/03/20 06:41:40;;;;;;;5.10;3.13;;;1.90;76.10;;;;;;10046912;28;20048;-63
2021/03/20 06:46:34;;;;;;;5.32;2.97;;;1.90;76.70;;;;;;10049227;28;20030;-63
2021/03/20 06:51:25;;;;;;;5.07;2.60;;;1.90;76.00;;;;;;10049296;28;20033;-61
2021/03/20 06:56:18;;;;;;;4.82;2.50;;;2.00;76.70;;;;;;10050113;28;20032;-62
2021/03/20 07:01:34;;;;;;;4.47;2.80;;;2.00;76.10;;;;;;10047621;28;20123;-63
2021/03/20 07:07:11;;;;;;;4.13;2.53;;;2.10;76.00;;;;;;10048015;28;20029;-64
2021/03/20 07:12:08;;;;;;;6.13;2.92;;;2.10;76.70;;;;;;10047703;28;20488;-64
2021/03/20 07:17:01;;;;;;;4.00;2.15;;;2.20;76.30;;;;;;10047287;28;20041;-70
2021/03/20 07:21:58;;;;;;;4.07;2.58;;;2.20;75.80;;;;;;10053806;28;20081;-68
2021/03/20 07:27:03;;;;;;;4.90;2.45;;;2.30;75.70;;;;;;10055214;28;20487;-66
2021/03/20 07:31:59;;;;;;;5.57;2.47;;;2.40;75.00;;;;;;10051918;28;20049;-67
2021/03/20 07:37:20;;;;;;;5.20;2.35;;;2.40;75.00;;;;;;10056059;28;20111;-64
2021/03/20 07:42:29;;;;;;;3.72;1.98;;;2.60;74.50;;;;;;10054351;28;20129;-62
2021/03/20 07:47:21;;;;;;;4.00;2.15;;;2.70;74.00;;;;;;10052954;28;20041;-63
2021/03/20 07:52:25;;;;;;;5.13;2.25;;;2.70;73.80;;;;;;10054737;28;20029;-65
2021/03/20 07:57:18;;;;;;;3.40;1.98;;;2.80;73.70;;;;;;10057666;28;20124;-64
2021/03/20 08:02:13;;;;;;;2.10;1.42;;;2.80;73.50;;;;;;10054106;28;20091;-64
2021/03/20 08:07:05;;;;;;;4.43;2.43;;;2.90;73.40;;;;;;10051127;28;20519;-64
2021/03/20 08:11:59;;;;;;;6.10;2.38;;;2.80;73.10;;;;;;10052233;28;20028;-63
2021/03/20 08:16:50;;;;;;;7.50;2.92;;;2.90;73.10;;;;;;10047906;28;20034;-66
2021/03/20 08:22:20;;;;;;;4.43;2.22;;;3.30;74.20;;;;;;10051665;28;20637;-68
2021/03/20 08:27:21;;;;;;;4.95;2.78;;;3.70;71.60;;;;;;10050945;28;20045;-68
2021/03/20 08:33:00;;;;;;;3.30;1.98;;;3.50;71.50;;;;;;10041033;28;20411;-71
2021/03/20 08:37:59;;;;;;;6.53;3.22;;;3.50;70.80;;;;;;10050439;28;20581;-62
2021/03/20 08:43:17;;;;;;;5.30;2.88;;;3.70;70.20;;;;;;10049451;28;20021;-68
2021/03/20 08:48:27;;;;;;;5.57;2.58;;;3.60;71.50;;;;;;10048800;28;20037;-67
2021/03/20 08:53:42;;;;;;;4.43;2.60;;;3.60;69.70;;;;;;10047045;28;20053;-68
2021/03/20 08:59:00;;;;;;;3.17;2.03;;;3.70;70.00;;;;;;10048353;28;20026;-69
2021/03/20 09:03:55;;;;;;;4.60;2.53;;;3.80;68.40;;;;;;10041039;28;20029;-69
2021/03/20 09:08:50;;;;;;;5.90;2.45;;;3.90;68.20;;;;;;10052625;28;20495;-69
2021/03/20 09:13:48;;;;;;;4.22;2.78;;;3.90;68.20;;;;;;10044686;28;20064;-69
2021/03/20 09:18:40;;;;;;;3.78;2.40;;;3.90;67.40;;;;;;10048718;28;20044;-69
2021/03/20 09:23:39;;;;;;;3.83;2.15;;;4.10;66.80;;;;;;10041620;28;20113;-69
2021/03/20 09:28:49;;;;;;;3.47;2.25;;;4.30;65.60;;;;;;10045337;28;20040;-69
2021/03/20 09:33:40;;;;;;;2.38;1.75;;;4.30;64.20;;;;;;10050312;28;20065;-69
2021/03/20 09:38:34;;;;;;;9.82;2.13;;;4.20;62.90;;;;;;10046232;28;20040;-68
2021/03/20 09:44:03;;;;;;;3.38;1.90;;;4.20;64.20;;;;;;10048649;28;20025;-69
2021/03/20 09:48:55;;;;;;;2.35;1.70;;;4.20;61.50;;;;;;9968431;28;20528;-69
2021/03/20 09:53:46;;;;;;;2.45;1.65;;;4.60;63.70;;;;;;10025424;28;20311;-68
2021/03/20 09:58:37;;;;;;;4.18;2.08;;;4.70;62.10;;;;;;10050123;28;20177;-69
2021/03/20 10:03:42;;;;;;;3.58;1.80;;;4.80;61.00;;;;;;10048484;28;20564;-67
2021/03/20 10:08:43;;;;;;;3.60;2.47;;;4.80;61.50;;;;;;10047407;28;20030;-67
2021/03/20 10:13:42;;;;;;;2.53;1.80;;;4.80;60.40;;;;;;10048692;28;20062;-69
2021/03/20 10:18:36;;;;;;;4.80;1.45;;;4.60;58.70;;;;;;10048955;28;20623;-69
2021/03/20 10:23:42;;;;;;;3.30;1.75;;;4.40;58.90;;;;;;10046176;28;20029;-70
2021/03/20 10:28:42;;;;;;;2.03;1.27;;;4.50;57.30;;;;;;10046695;28;20736;-69
2021/03/20 10:33:38;;;;;;;2.20;1.27;;;4.60;57.60;;;;;;10048373;28;20402;-68
2021/03/20 10:38:29;;;;;;;4.68;2.13;;;4.60;56.30;;;;;;10046343;28;20041;-69
2021/03/20 10:43:20;;;;;;;2.40;1.38;;;5.00;56.40;;;;;;10045939;28;20056;-67
2021/03/20 10:48:20;;;;;;;2.17;1.52;;;5.30;56.60;;;;;;10047229;28;20041;-69
2021/03/20 10:53:24;;;;;;;4.03;1.52;;;5.50;56.50;;;;;;10042989;28;20041;-68
2021/03/20 10:58:28;;;;;;;4.45;1.88;;;5.70;55.60;;;;;;10046811;28;20036;-68
2021/03/20 11:03:36;;;;;;;4.45;2.10;;;5.60;54.60;;;;;;10045250;28;20626;-68
2021/03/20 11:08:28;;;;;;;4.82;1.83;;;5.20;53.80;;;;;;10048014;28;20427;-67
2021/03/20 11:13:19;;;;;;;2.90;1.75;;;4.90;53.60;;;;;;10049854;28;20033;-69
2021/03/20 11:18:31;;;;;;;2.58;1.55;;;4.90;54.90;;;;;;10046363;28;20087;-67
2021/03/20 11:23:27;;;;;;;1.58;1.13;;;4.90;53.50;;;;;;10041147;28;20030;-69
2021/03/20 11:28:37;;;;;;;3.17;1.63;;;5.00;53.70;;;;;;10045491;28;20029;-69
2021/03/20 11:33:31;;;;;;;2.05;1.58;;;5.40;52.30;;;;;;10078289;28;20074;-68
2021/03/20 11:38:24;;;;;;;2.70;2.05;;;5.80;52.40;;;;;;10044648;28;20545;-68
2021/03/20 11:43:36;;;;;;;2.90;2.10;;;5.80;52.90;;;;;;10045804;28;20108;-69
2021/03/20 11:48:43;;;;;;;4.10;1.90;;;6.00;51.50;;;;;;10046230;28;20026;-69
2021/03/20 11:53:41;;;;;;;4.50;1.75;;;6.10;50.90;;;;;;10038494;28;20120;-68
2021/03/20 11:58:35;;;;;;;2.83;2.17;;;6.20;51.40;;;;;;10045349;28;20510;-69
2021/03/20 12:03:36;;;;;;;1.98;1.40;;;6.60;51.10;;;;;;10061987;28;20148;-68
2021/03/20 12:08:40;;;;;;;3.92;1.35;;;6.40;51.10;;;;;;10054126;28;20029;-69
2021/03/20 12:13:43;;;;;;;2.25;1.52;;;6.40;51.00;;;;;;10050424;28;20037;-68
2021/03/20 12:18:34;;;;;;;3.70;1.70;;;6.70;50.20;;;;;;10053512;28;20525;-68
2021/03/20 12:23:27;;;;;;;3.17;1.90;;;6.70;48.80;;;;;;10052606;28;20108;-69
2021/03/20 12:28:25;;;;;;;2.22;1.58;;;6.40;49.50;;;;;;10052771;28;20033;-69
2021/03/20 12:33:18;;;;;;;2.33;1.80;;;6.80;50.10;;;;;;10053832;28;20250;-68
2021/03/20 12:38:32;;;;;;;2.00;1.55;;;6.60;49.30;;;;;;10049089;28;20045;-68
2021/03/20 12:43:33;;;;;;;2.85;1.50;;;6.50;49.40;;;;;;10052283;28;20451;-70
2021/03/20 12:48:25;;;;;;;4.43;1.90;;;6.80;49.00;;;;;;10049488;28;20022;-68
2021/03/20 12:53:15;;;;;;;2.65;1.73;;;7.30;48.40;;;;;;10053109;28;20526;-68
2021/03/20 12:58:06;;;;;;;6.00;2.03;;;7.60;48.50;;;;;;10050709;28;20024;-67
2021/03/20 13:03:00;;;;;;;2.30;1.48;;;7.90;46.90;;;;;;10050873;28;20635;-68
2021/03/20 13:07:53;;;;;;;3.60;1.58;;;8.20;47.30;;;;;;10050159;28;20441;-69
2021/03/20 13:12:43;;;;;;;2.58;1.63;;;9.10;49.10;;;;;;10049037;28;20060;-68
2021/03/20 13:17:34;;;;;;;3.45;1.92;;;9.70;50.60;;;;;;10042743;28;20507;-69
2021/03/20 13:22:25;;;;;;;4.85;2.00;;;10.30;51.20;;;;;;10049889;28;20040;-69
2021/03/20 13:27:16;;;;;;;4.28;1.90;;;10.60;50.10;;;;;;10046270;28;20580;-69
2021/03/20 13:32:08;;;;;;;3.05;2.75;;;10.80;50.90;;;;;;10050084;28;20135;-69
2021/03/20 13:36:58;;;;;;;2.72;1.80;;;11.60;50.30;;;;;;10049173;28;20120;-68
2021/03/20 13:41:49;;;;;;;3.10;1.67;;;11.70;46.80;;;;;;10051280;28;20099;-69
2021/03/20 13:46:40;;;;;;;2.78;1.80;;;12.60;44.60;;;;;;10050200;28;20029;-67
2021/03/20 13:51:31;;;;;;;2.08;1.60;;;15.80;41.20;;;;;;10046650;28;20021;-69
2021/03/20 13:56:22;;;;;;;2.80;2.28;;;15.90;38.30;;;;;;10048860;28;20499;-67
2021/03/20 14:01:13;;;;;;;3.80;1.80;;;16.70;36.90;;;;;;10047768;28;20037;-68
2021/03/20 14:06:05;;;;;;;3.28;1.80;;;16.10;35.90;;;;;;10049974;28;20032;-68
2021/03/20 14:10:59;;;;;;;3.55;1.90;;;14.30;38.40;;;;;;10047987;28;20463;-68
2021/03/20 14:15:50;;;;;;;2.53;1.60;;;13.20;37.20;;;;;;10047682;28;20065;-67
2021/03/20 14:20:44;;;;;;;1.70;1.50;;;13.80;36.70;;;;;;10048176;28;20041;-67
2021/03/20 14:25:36;;;;;;;3.40;1.60;;;13.40;35.60;;;;;;10046033;28;20497;-68
2021/03/20 14:30:32;;;;;;;1.77;1.60;;;13.80;36.80;;;;;;10048739;28;20368;-67
2021/03/20 14:35:24;;;;;;;2.03;1.50;;;13.80;36.20;;;;;;10048727;28;20392;-66
2021/03/20 14:40:18;;;;;;;4.13;1.67;;;13.30;36.90;;;;;;10047371;28;20033;-68
2021/03/20 14:45:10;;;;;;;2.20;1.50;;;12.40;35.70;;;;;;10046167;28;20419;-68
2021/03/20 14:50:01;;;;;;;2.05;1.45;;;12.00;36.20;;;;;;10045777;28;20041;-68
2021/03/20 14:54:52;;;;;;;3.92;1.63;;;12.80;35.30;;;;;;10048430;28;20368;-67
2021/03/20 14:59:44;;;;;;;1.92;1.52;;;13.40;34.40;;;;;;10047173;28;20025;-68
2021/03/20 15:04:35;;;;;;;2.33;1.35;;;14.10;34.10;;;;;;10040930;28;20025;-68
2021/03/20 15:09:26;;;;;;;2.78;1.30;;;14.50;33.50;;;;;;10047301;28;20033;-68
2021/03/20 15:14:17;;;;;;;1.92;1.73;;;15.10;32.70;;;;;;10046335;28;20152;-68
2021/03/20 15:19:08;;;;;;;2.85;1.80;;;18.20;30.10;;;;;;10043971;28;20108;-69
2021/03/20 15:23:59;;;;;;;2.10;1.60;;;19.50;29.20;;;;;;10041128;28;20025;-70
2021/03/20 15:28:51;;;;;;;4.93;1.88;;;20.60;28.40;;;;;;10058788;28;20029;-64
2021/03/20 15:33:42;;;;;;;2.10;1.60;;;20.00;28.70;;;;;;10063264;28;20045;-67
2021/03/20 15:38:33;;;;;;;1.45;1.25;;;17.60;29.90;;;;;;10045333;28;20130;-60
2021/03/20 15:43:26;;;;;;;3.40;1.77;;;15.90;30.50;;;;;;10052775;28;20507;-58
2021/03/20 15:48:18;;;;;;;3.65;1.73;;;15.30;30.60;;;;;;10054658;28;20093;-69
2021/03/20 15:53:10;;;;;;;2.10;1.90;;;14.10;31.40;;;;;;10047685;28;20066;-69
2021/03/20 15:58:02;;;;;;;1.52;1.40;;;12.60;32.70;;;;;;10052394;28;20033;-69
2021/03/20 16:02:53;;;;;;;3.30;1.58;;;11.80;32.90;;;;;;10053623;28;20116;-69
2021/03/20 16:07:45;;;;;;;1.60;1.50;;;11.80;32.60;;;;;;10050877;28;20095;-70
2021/03/20 16:12:37;;;;;;;4.65;1.83;;;12.20;32.20;;;;;;10057661;28;20172;-70
2021/03/20 16:17:28;;;;;;;1.83;1.60;;;11.50;32.50;;;;;;10051007;28;20455;-68
2021/03/20 16:22:19;;;;;;;2.30;1.40;;;10.60;33.20;;;;;;10052440;28;20030;-71
2021/03/20 16:27:13;;;;;;;3.90;1.75;;;9.90;33.70;;;;;;10051457;28;20021;-70
2021/03/20 16:32:04;;;;;;;2.72;1.60;;;9.40;33.70;;;;;;10048711;28;20044;-69
2021/03/20 16:36:55;;;;;;;2.42;1.50;;;9.10;34.10;;;;;;10054390;28;20022;-71
2021/03/20 16:41:46;;;;;;;1.70;1.20;;;9.10;34.10;;;;;;10048911;28;20028;-70
2021/03/20 16:46:37;;;;;;;2.25;1.52;;;8.70;34.00;;;;;;10053220;28;20032;-68
2021/03/20 16:51:31;;;;;;;2.30;1.60;;;8.70;34.00;;;;;;10051487;28;20123;-68
2021/03/20 16:56:22;;;;;;;3.25;1.73;;;8.60;34.10;;;;;;10048007;28;20041;-69
2021/03/20 17:01:13;;;;;;;2.33;1.27;;;8.50;34.10;;;;;;10052551;28;20037;-69
2021/03/20 17:06:05;;;;;;;3.00;1.00;;;8.30;34.40;;;;;;10049877;28;20503;-71
2021/03/20 17:10:56;;;;;;;3.53;1.33;;;8.20;34.30;;;;;;10049028;28;20523;-70
2021/03/20 17:15:49;;;;;;;1.88;1.35;;;8.10;34.50;;;;;;10050998;28;20036;-71
2021/03/20 17:20:40;;;;;;;3.22;1.70;;;8.20;34.60;;;;;;10046305;28;20486;-69
2021/03/20 17:25:31;;;;;;;2.90;1.38;;;8.30;34.60;;;;;;10046075;28;20219;-69
2021/03/20 17:30:24;;;;;;;3.08;1.42;;;8.10;34.70;;;;;;10051636;28;20018;-69
2021/03/20 17:35:15;;;;;;;1.23;1.02;;;8.00;34.80;;;;;;10045413;28;20042;-70
2021/03/20 17:40:09;;;;;;;2.10;1.05;;;7.70;34.80;;;;;;10051379;28;20029;-70
2021/03/20 17:45:02;;;;;;;2.35;1.30;;;7.70;34.80;;;;;;10049025;28;20495;-69
2021/03/20 17:49:57;;;;;;;2.75;1.27;;;7.60;35.10;;;;;;10048886;28;20029;-70
2021/03/20 17:54:48;;;;;;;1.45;1.15;;;7.70;35.10;;;;;;10052284;28;20055;-69
2021/03/20 17:59:39;;;;;;;2.38;1.17;;;7.60;35.10;;;;;;10048379;28;20053;-67
2021/03/20 18:04:30;;;;;;;2.08;0.88;;;7.60;35.10;;;;;;10050293;28;20044;-65
2021/03/20 18:09:21;;;;;;;2.03;1.13;;;7.50;35.20;;;;;;10055871;28;20040;-63
2021/03/20 18:14:12;;;;;;;2.22;1.75;;;7.50;35.30;;;;;;10049419;28;20466;-70
2021/03/20 18:19:05;;;;;;;3.63;1.92;;;7.50;35.30;;;;;;10049040;28;20090;-67
2021/03/20 18:23:55;;;;;;;118.70;48.10;;;7.40;35.40;;;;;;10047408;28;20111;-65
2021/03/20 18:28:46;;;;;;;47.70;18.10;;;7.50;35.30;;;;;;10049074;28;20083;-62
2021/03/20 18:33:37;;;;;;;10.45;3.92;;;7.30;35.30;;;;;;10049300;28;20055;-66
2021/03/20 18:38:31;;;;;;;7.95;2.47;;;7.00;35.40;;;;;;10049186;28;20645;-66
2021/03/20 18:43:26;;;;;;;4.65;2.17;;;6.90;35.80;;;;;;10050694;28;20061;-65
2021/03/20 18:48:18;;;;;;;6.00;2.50;;;7.00;35.80;;;;;;10059827;28;20029;-66
2021/03/20 18:53:10;;;;;;;2.90;1.88;;;6.80;35.90;;;;;;10049606;28;20048;-66
2021/03/20 18:58:01;;;;;;;2.67;1.70;;;6.90;35.90;;;;;;10047830;28;20037;-63
2021/03/20 19:02:52;;;;;;;3.13;1.58;;;6.90;36.10;;;;;;10045936;28;20392;-64
2021/03/20 19:07:43;;;;;;;2.13;1.42;;;7.00;36.10;;;;;;10047368;28;20514;-65
2021/03/20 19:12:34;;;;;;;3.50;2.25;;;7.20;36.10;;;;;;10050120;28;20057;-64
2021/03/20 19:17:25;;;;;;;2.92;1.80;;;7.10;36.30;;;;;;10054962;28;20498;-64
2021/03/20 19:22:15;;;;;;;3.95;2.28;;;7.10;36.40;;;;;;10057489;28;20024;-69
2021/03/20 19:27:07;;;;;;;3.53;2.10;;;7.20;36.50;;;;;;10055419;28;20522;-67
2021/03/20 19:31:57;;;;;;;4.30;2.05;;;7.20;36.40;;;;;;10057647;28;20042;-66
2021/03/20 19:36:48;;;;;;;3.95;2.33;;;7.20;36.60;;;;;;10053368;28;20045;-66
2021/03/20 19:41:39;;;;;;;5.40;3.25;;;7.20;36.70;;;;;;10055252;28;20026;-67
2021/03/20 19:46:36;;;;;;;3.97;1.70;;;7.20;36.70;;;;;;10047183;28;20081;-67
2021/03/20 19:51:27;;;;;;;2.45;1.70;;;7.10;36.80;;;;;;10054578;28;20100;-67
2021/03/20 19:56:19;;;;;;;2.17;1.33;;;7.00;36.90;;;;;;10043239;28;20033;-68
2021/03/20 20:01:14;;;;;;;3.80;1.30;;;7.00;37.00;;;;;;10055786;28;20021;-64
2021/03/20 20:06:06;;;;;;;3.42;1.80;;;7.00;37.00;;;;;;10036207;28;20113;-64
2021/03/20 20:10:57;;;;;;;2.58;1.60;;;7.00;36.90;;;;;;10032540;28;20025;-65
2021/03/20 20:15:48;;;;;;;2.25;1.20;;;7.00;37.00;;;;;;10046928;28;20045;-65
2021/03/20 20:20:40;;;;;;;2.58;1.40;;;7.00;37.00;;;;;;10042515;28;20032;-69
2021/03/20 20:25:31;;;;;;;2.78;1.38;;;6.90;37.00;;;;;;10047167;28;20410;-64
2021/03/20 20:30:23;;;;;;;1.15;1.05;;;6.90;37.10;;;;;;10045040;28;20030;-65
2021/03/20 20:35:14;;;;;;;3.50;1.48;;;7.00;37.00;;;;;;10050841;28;20076;-68
2021/03/20 20:40:06;;;;;;;2.33;1.00;;;6.90;36.90;;;;;;10051755;28;20040;-67
2021/03/20 20:44:57;;;;;;;2.38;1.25;;;7.00;36.90;;;;;;10050738;28;20315;-68
2021/03/20 20:49:49;;;;;;;3.08;1.33;;;7.00;36.90;;;;;;10051967;28;20067;-68
2021/03/20 20:54:40;;;;;;;3.28;1.48;;;6.90;37.00;;;;;;10051394;28;20041;-67
2021/03/20 20:59:33;;;;;;;1.83;1.08;;;7.00;36.90;;;;;;10052514;28;20047;-68
2021/03/20 21:04:23;;;;;;;3.00;1.20;;;6.90;36.90;;;;;;10054231;28;20089;-67
2021/03/20 21:09:14;;;;;;;2.03;1.00;;;6.80;36.80;;;;;;10051588;28;20287;-68
2021/03/20 21:14:05;;;;;;;3.70;1.08;;;6.90;37.00;;;;;;10051246;28;20010;-68
2021/03/20 21:18:56;;;;;;;1.20;0.95;;;6.90;37.00;;;;;;10053079;28;20033;-68
2021/03/20 21:23:47;;;;;;;2.47;1.55;;;6.90;36.90;;;;;;10051903;28;20021;-67
2021/03/20 21:28:38;;;;;;;2.35;1.83;;;6.70;36.90;;;;;;10053098;28;20033;-69
2021/03/20 21:33:29;;;;;;;4.93;1.88;;;6.70;36.90;;;;;;10050432;28;20048;-68
2021/03/20 21:38:21;;;;;;;2.58;1.90;;;6.80;36.90;;;;;;10050655;28;20041;-68
2021/03/20 21:43:12;;;;;;;1.92;1.52;;;6.70;36.90;;;;;;10034622;28;20309;-69
2021/03/20 21:48:03;;;;;;;4.65;2.22;;;6.70;36.90;;;;;;10050416;28;20036;-67
2021/03/20 21:52:54;;;;;;;2.55;1.88;;;6.80;37.10;;;;;;10051215;28;20018;-67
2021/03/20 21:57:50;;;;;;;2.58;1.73;;;6.70;37.10;;;;;;10050031;28;20056;-67
2021/03/20 22:02:41;;;;;;;4.38;2.20;;;6.70;37.10;;;;;;10042949;28;20030;-68
2021/03/20 22:07:32;;;;;;;4.57;2.13;;;6.70;37.10;;;;;;10051359;28;20025;-68
2021/03/20 22:12:23;;;;;;;3.88;2.25;;;6.60;37.20;;;;;;10053569;28;20514;-68
2021/03/20 22:17:13;;;;;;;4.68;1.70;;;6.50;37.10;;;;;;10049681;28;20330;-68
2021/03/20 22:22:04;;;;;;;4.63;1.88;;;6.50;37.20;;;;;;10046345;28;20026;-68
2021/03/20 22:26:55;;;;;;;4.22;2.67;;;6.50;37.10;;;;;;10048138;28;20113;-67
2021/03/20 22:31:46;;;;;;;3.42;2.30;;;6.50;37.30;;;;;;10047312;28;20034;-68
2021/03/20 22:36:36;;;;;;;2.72;1.98;;;6.50;37.30;;;;;;10049439;28;20063;-67
2021/03/20 22:41:27;;;;;;;6.35;2.70;;;6.50;37.30;;;;;;10050508;28;20030;-66
2021/03/20 22:46:18;;;;;;;3.78;2.83;;;6.30;38.00;;;;;;10047867;28;20036;-68
2021/03/20 22:51:09;;;;;;;6.55;3.28;;;6.30;37.50;;;;;;10046819;28;20451;-68
2021/03/20 22:56:01;;;;;;;8.57;4.00;;;6.10;37.50;;;;;;10048001;28;20040;-67
2021/03/20 23:00:59;;;;;;;5.20;3.08;;;5.90;38.00;;;;;;10046168;28;20029;-68
2021/03/20 23:05:52;;;;;;;5.15;2.78;;;5.90;38.00;;;;;;10049699;28;20075;-68
2021/03/20 23:10:42;;;;;;;6.88;3.50;;;5.80;38.00;;;;;;10053502;28;20103;-68
2021/03/20 23:15:34;;;;;;;5.55;3.60;;;5.80;38.10;;;;;;10048972;28;20246;-68
2021/03/20 23:20:25;;;;;;;9.55;3.70;;;5.80;38.40;;;;;;10044745;28;20094;-67
2021/03/20 23:25:18;;;;;;;8.73;4.18;;;5.80;38.50;;;;;;10041726;28;20033;-68
2021/03/20 23:30:13;;;;;;;7.57;4.57;;;5.80;38.90;;;;;;10047089;28;20034;-67
2021/03/20 23:35:05;;;;;;;7.18;4.03;;;5.90;39.00;;;;;;10046465;28;20726;-68
2021/03/20 23:39:56;;;;;;;7.15;4.20;;;6.00;39.40;;;;;;10045716;28;20732;-69
2021/03/20 23:44:48;;;;;;;9.45;4.55;;;6.00;39.60;;;;;;10049285;28;20283;-68
2021/03/20 23:49:39;;;;;;;7.85;4.63;;;6.00;39.70;;;;;;10077235;28;20037;-68
2021/03/20 23:54:29;;;;;;;5.15;3.95;;;6.00;40.10;;;;;;10046326;28;20167;-68
2021/03/20 23:59:21;;;;;;;5.68;4.22;;;5.80;40.30;;;;;;10045103;28;20038;-66
